Pedro Bay, AK

03:28 PM AKDT em 29 de Agosto de 2015 (GMT -0800)
Iliamna | | Change Station
CLOSE
Current Station
Aeroporto
Location: Iliamna,
Altitude: 161 ft
Estações Meteorológicas Próximas

Elev 161 ft 59.75 °N, 154.91 °W | Updated 35 minutes ago

Overcast
Céu Encoberto
51 °F
Aparente 51 °F
N
12
Vento Variável Vento de NO
Gusts 21 mph

Hoje
Máxima -- | Mínima -- °F
--% Possibilidade de Precip.
Ontem
Máxima -- | Mínima -- °F
Precip. -- pol
7:08 AM 9:31 PM
Lua cheia, 100% visible
Pressão 29.48 pol
Visibilidade 10.0 milhas
Nuvens Muito Nublado 4000 ft
Muito Nublado 4700 ft
Céu Encoberto 6000 ft
Ponto de Orvalho 37 °F
Humidade 59%
Chuva 0.03 pol
Altura de Neve Não disponível
UV 2 em vez de 12
Pólen Não disponível
Qualidade do Ar Não disponível
Flu Activity Não disponível
METAR PAIL 292253Z 32010G18KT 10SM BKN040 BKN047 OVC060 11/03 A2948 RMK AO2 SLP983 T01060028
Pressão 29.48 pol
Visibilidade 10.0 milhas
Nuvens Muito Nublado 4000 ft
Muito Nublado 4700 ft
Céu Encoberto 6000 ft
Ponto de Orvalho 37 °F
Humidade 59%
Chuva 0.03 pol
Altura de Neve Não disponível
UV 2 em vez de 12
Pólen Não disponível
Qualidade do Ar Não disponível
Flu Activity Não disponível
METAR PAIL 292253Z 32010G18KT 10SM BKN040 BKN047 OVC060 11/03 A2948 RMK AO2 SLP983 T01060028

10-Day Weather Forecast

×

Almanac

Astronomia

Aug. 29, 2015 Nascer Pôr
Hora atual
Crepúsculo civil
Crepúsculo náutico
Crepúsculo astronómico
Lua
Comprimento da luz visível
Duração do Dia
Tomorrow will be .
, % of the Moon is Illuminated

Extremos de Hoje

situação na parte mais alta situação na parte mais baixa

Community

WunderPhotos

Upload Photos

1,850,783 fotografias inseridas!

WunderBlogs® & News

Nearby

Qualidade do Ar

  Qualidade do Ar Índice da Q.A. Poluente
Not available.

Altura da Neve

Estação altura Altitude

Actividade Sísmisca

Cidade Distância Mag. Hora & Data
Mínima magnitude apresentada é 2.5.

Temperaturas das Águas Costeiras

Local Temperatura

Stations

Estações Meteorológicas Próximas

Localização da Estação Temp. Sensação Térmica Ponto de Orvalho Humidade Vento Precip. Elev Actualizado Tipo